createdAt,value
2023-12-16T00:02:18.861Z,0
2023-12-16T00:07:38.183Z,0
2023-12-16T00:12:56.636Z,0
2023-12-16T00:18:15.829Z,0
2023-12-16T00:23:35.150Z,0
2023-12-16T00:28:54.200Z,0
2023-12-16T00:34:13.885Z,0
2023-12-16T00:39:33.150Z,0
2023-12-16T00:44:52.067Z,0
2023-12-16T00:55:30.962Z,0
2023-12-16T01:00:49.437Z,0
2023-12-16T01:06:08.760Z,0
2023-12-16T01:11:28.522Z,0
2023-12-16T01:16:47.220Z,0
2023-12-16T01:22:06.551Z,0
2023-12-16T01:27:25.822Z,0
2023-12-16T01:32:45.125Z,0
2023-12-16T01:38:04.896Z,0
2023-12-16T01:43:23.216Z,0
2023-12-16T01:48:42.959Z,0
2023-12-16T01:54:02.025Z,0
2023-12-16T01:59:20.782Z,0
2023-12-16T02:04:40.452Z,0
2023-12-16T02:09:59.599Z,0
2023-12-16T02:15:19.165Z,0
2023-12-16T02:20:38.752Z,0
2023-12-16T02:25:57.841Z,0
2023-12-16T02:31:16.813Z,0
2023-12-16T02:36:36.389Z,0
2023-12-16T02:42:59.842Z,652.81
2023-12-16T02:47:50.232Z,0
2023-12-16T02:53:09.458Z,0
2023-12-16T02:58:28.705Z,0
2023-12-16T03:03:47.535Z,0
2023-12-16T03:09:06.799Z,0
2023-12-16T03:14:26.243Z,0
2023-12-16T03:19:44.939Z,0
2023-12-16T03:25:04.280Z,0
2023-12-16T03:30:23.982Z,0
2023-12-16T03:35:43.473Z,0
2023-12-16T03:41:02.292Z,0
2023-12-16T03:46:21.734Z,0
2023-12-16T03:51:40.989Z,0
2023-12-16T03:57:00.616Z,0
2023-12-16T04:02:20.044Z,0
2023-12-16T04:07:39.005Z,0
2023-12-16T04:12:58.016Z,652.81
2023-12-16T04:18:17.754Z,652.81
2023-12-16T04:23:36.614Z,652.81
2023-12-16T04:28:55.352Z,652.81
2023-12-16T04:34:14.669Z,650.26
2023-12-16T04:39:33.872Z,652.81
2023-12-16T04:44:52.236Z,652.81
2023-12-16T04:50:11.066Z,650.26
2023-12-16T04:55:30.482Z,652.81
2023-12-16T05:00:50.524Z,650.26
2023-12-16T05:06:09.856Z,652.81
2023-12-16T05:11:28.757Z,652.81
2023-12-16T05:16:47.782Z,0
2023-12-16T05:22:07.251Z,0
2023-12-16T05:27:26.573Z,0
2023-12-16T05:32:46.531Z,0
2023-12-16T05:38:05.217Z,0
2023-12-16T05:43:24.317Z,0
2023-12-16T05:48:44.137Z,0
2023-12-16T05:54:03.400Z,0
2023-12-16T05:59:22.730Z,0
2023-12-16T06:04:42.127Z,0
2023-12-16T06:10:02.853Z,0
2023-12-16T06:15:20.677Z,0
2023-12-16T06:20:39.586Z,0
2023-12-16T06:25:58.572Z,0
2023-12-16T06:31:18.110Z,0
2023-12-16T06:36:38.049Z,0
2023-12-16T06:41:56.344Z,0
2023-12-16T06:47:16.057Z,0
2023-12-16T06:52:35.135Z,0
2023-12-16T06:57:54.597Z,0
2023-12-16T07:03:14.375Z,1
2023-12-16T07:08:33.331Z,6
2023-12-16T07:13:52.322Z,6
2023-12-16T07:19:12.147Z,12
2023-12-16T07:24:31.112Z,15.78
2023-12-16T07:29:49.929Z,16.34
2023-12-16T07:35:09.376Z,21.68
2023-12-16T07:40:29.093Z,21.59
2023-12-16T07:45:48.720Z,23.48
2023-12-16T07:51:07.244Z,25.09
2023-12-16T07:56:26.185Z,27.43
2023-12-16T08:01:45.760Z,27.3
2023-12-16T08:07:04.777Z,30.03
2023-12-16T08:12:24.634Z,30.35
2023-12-16T08:23:03.780Z,31.94
2023-12-16T08:28:22.397Z,34.75
2023-12-16T08:33:41.425Z,39.13
2023-12-16T08:39:00.373Z,46.69
2023-12-16T08:44:20.053Z,50.23
2023-12-16T08:49:39.145Z,49.46
2023-12-16T08:54:57.823Z,53.93
2023-12-16T09:00:17.503Z,52.17
2023-12-16T09:05:36.716Z,55.11
2023-12-16T09:10:55.751Z,56.54
2023-12-16T09:16:14.469Z,58.45
2023-12-16T09:21:33.644Z,62.5
2023-12-16T09:26:52.817Z,60.15
2023-12-16T09:32:11.846Z,62.72
2023-12-16T09:37:30.438Z,63.27
2023-12-16T09:42:49.351Z,69.06
2023-12-16T09:48:08.814Z,82.92
2023-12-16T09:58:47.492Z,93.83
2023-12-16T10:04:06.548Z,81.83
2023-12-16T10:14:45.298Z,82.31
2023-12-16T10:20:04.449Z,92.21
2023-12-16T10:25:22.934Z,87.69
2023-12-16T10:30:41.823Z,104.72
2023-12-16T10:36:01.004Z,115.81
2023-12-16T10:41:20.706Z,109.73
2023-12-16T10:46:40.477Z,105.07
2023-12-16T10:51:59.278Z,109.43
2023-12-16T10:57:18.552Z,124.52
2023-12-16T11:07:56.580Z,148.04
2023-12-16T11:13:16.237Z,146.35
2023-12-16T11:18:35.735Z,124.1
2023-12-16T11:23:55.130Z,128.43
2023-12-16T11:29:14.009Z,142
2023-12-16T11:39:52.140Z,0
2023-12-16T11:45:11.141Z,0
2023-12-16T11:50:29.855Z,346.37
2023-12-16T11:55:49.198Z,614.56
2023-12-16T12:01:08.676Z,572.43
2023-12-16T12:06:28.150Z,520.21
2023-12-16T12:11:47.565Z,451.36
2023-12-16T12:17:07.364Z,0
2023-12-16T12:22:26.547Z,469.21
2023-12-16T12:27:45.849Z,78.14
2023-12-16T12:33:05.069Z,63.81
2023-12-16T12:38:23.822Z,69.28
2023-12-16T12:49:01.673Z,54.86
2023-12-16T12:54:21.360Z,48.53
2023-12-16T12:59:56.621Z,52.72
2023-12-16T13:04:59.151Z,49.93
2023-12-16T13:10:17.819Z,55.22
2023-12-16T13:15:51.957Z,59.17
2023-12-16T13:20:56.340Z,66.22
2023-12-16T13:26:15.284Z,82.88
2023-12-16T13:31:34.740Z,83.91
2023-12-16T13:36:55.872Z,78.78
2023-12-16T13:42:13.665Z,81.5
2023-12-16T13:47:34.171Z,76.2
2023-12-16T13:52:52.175Z,71.05
2023-12-16T13:58:11.827Z,50.69
2023-12-16T14:03:31.647Z,47.18
2023-12-16T14:08:50.369Z,57.46
2023-12-16T14:19:28.721Z,38.24
2023-12-16T14:24:48.115Z,40.03
2023-12-16T14:30:07.447Z,42.74
2023-12-16T14:35:26.797Z,37.86
2023-12-16T14:40:46.555Z,34.48
2023-12-16T14:46:05.862Z,39.69
2023-12-16T14:51:24.533Z,36.86
2023-12-16T14:56:44.005Z,31.29
2023-12-16T15:02:03.358Z,29.33
2023-12-16T15:07:23.102Z,29.5
2023-12-16T15:12:42.857Z,25.82
2023-12-16T15:18:01.787Z,25.46
2023-12-16T15:23:21.396Z,20.34
2023-12-16T15:28:40.572Z,17
2023-12-16T15:34:00.054Z,10
2023-12-16T15:44:38.234Z,0
2023-12-16T15:49:56.984Z,0
2023-12-16T15:55:16.734Z,0
2023-12-16T16:00:35.367Z,0
2023-12-16T16:05:54.683Z,0
2023-12-16T16:11:13.900Z,0
2023-12-16T16:16:32.883Z,0
2023-12-16T16:21:52.643Z,0
2023-12-16T16:27:12.523Z,0
2023-12-16T16:32:31.741Z,0
2023-12-16T16:37:51.163Z,0
2023-12-16T16:43:10.694Z,0
2023-12-16T16:48:30.049Z,0
2023-12-16T16:53:49.711Z,0
2023-12-16T16:59:08.773Z,0
2023-12-16T17:04:28.811Z,0
2023-12-16T17:09:48.228Z,0
2023-12-16T17:15:07.399Z,0
2023-12-16T17:20:26.563Z,0
2023-12-16T17:25:45.203Z,0
2023-12-16T17:31:04.924Z,0
2023-12-16T17:36:23.473Z,0
2023-12-16T17:47:01.950Z,0
2023-12-16T17:52:21.185Z,0
2023-12-16T17:57:40.728Z,0
2023-12-16T18:03:00.476Z,0
2023-12-16T18:08:18.780Z,0
2023-12-16T18:13:38.086Z,0
2023-12-16T18:18:57.599Z,0
2023-12-16T18:24:16.705Z,0
2023-12-16T18:29:36.264Z,0
2023-12-16T18:34:55.532Z,0
2023-12-16T18:40:16.241Z,0
2023-12-16T18:45:34.296Z,0
2023-12-16T18:50:52.859Z,0
2023-12-16T18:56:12.177Z,0
2023-12-16T19:01:31.299Z,0
2023-12-16T19:06:50.480Z,0
2023-12-16T19:12:10.260Z,0
2023-12-16T19:17:29.098Z,0
2023-12-16T19:22:48.751Z,0
2023-12-16T19:28:08.413Z,0
2023-12-16T19:38:47.108Z,0
2023-12-16T19:44:06.276Z,0
2023-12-16T19:49:26.329Z,0
2023-12-16T19:54:45.585Z,0
2023-12-16T20:00:04.862Z,0
2023-12-16T20:10:43.835Z,0
2023-12-16T20:21:22.864Z,0
2023-12-16T20:27:18.137Z,0
2023-12-16T20:32:36.646Z,0
2023-12-16T20:37:53.218Z,0
2023-12-16T20:43:12.403Z,0
2023-12-16T20:48:31.666Z,0
2023-12-16T20:53:50.778Z,0
2023-12-16T20:59:10.246Z,0
2023-12-16T21:04:29.434Z,0
2023-12-16T21:09:48.972Z,0
2023-12-16T21:15:08.119Z,0
2023-12-16T21:20:27.732Z,0
2023-12-16T21:25:46.548Z,0
2023-12-16T21:31:05.757Z,0
2023-12-16T21:36:25.625Z,0
2023-12-16T21:41:45.178Z,0
2023-12-16T21:47:04.454Z,0
2023-12-16T21:52:24.113Z,0
2023-12-16T21:57:43.123Z,0
2023-12-16T22:03:02.656Z,0
2023-12-16T22:08:22.376Z,0
2023-12-16T22:13:41.699Z,0
2023-12-16T22:19:01.072Z,0
2023-12-16T22:24:20.912Z,0
2023-12-16T22:29:38.771Z,0
2023-12-16T22:34:57.792Z,0
2023-12-16T22:45:36.322Z,0
2023-12-16T22:50:56.013Z,0
2023-12-16T23:01:34.727Z,0
2023-12-16T23:06:53.967Z,0
2023-12-16T23:12:12.746Z,0
2023-12-16T23:17:32.116Z,0
2023-12-16T23:28:10.956Z,0
2023-12-16T23:33:31.278Z,0
2023-12-16T23:38:50.736Z,0
2023-12-16T23:44:08.934Z,0
2023-12-16T23:49:28.348Z,0
